Time;durP1;ratioP1;P1;durP2;ratioP2;P2;SDS_P1;SDS_P2;PMS_P1;PMS_P2;Temp;Humidity;BMP_temperature;BMP_pressure;BME280_temperature;BME280_humidity;BME280_pressure;Samples;Min_cycle;Max_cycle;Signal;HPM_P1;HPM_P2
2021/01/02 00:01:04;;;;;;;13.33;11.53;;;3.20;99.90;;;0.56;100.00;99990.53;4906446;28;100662;-67
2021/01/02 00:04:40;;;;;;;17.33;12.60;;;3.20;99.90;;;0.44;100.00;99993.16;4907068;28;100308;-66
2021/01/02 00:07:56;;;;;;;17.07;12.63;;;3.20;99.90;;;0.56;100.00;99980.00;4906219;28;99819;-67
2021/01/02 00:10:28;;;;;;;15.23;12.43;;;3.30;99.90;;;0.61;100.00;99977.09;4907257;28;99888;-66
2021/01/02 00:13:19;;;;;;;16.23;13.43;;;3.20;99.90;;;0.51;100.00;99989.16;4906589;28;101310;-67
2021/01/02 00:16:14;;;;;;;17.53;13.77;;;4.00;99.90;;;0.42;100.00;99989.75;4912257;28;100230;-66
2021/01/02 00:18:59;;;;;;;15.53;12.00;;;3.10;99.90;;;0.35;100.00;99991.97;4926475;28;100305;-66
2021/01/02 00:21:28;;;;;;;18.10;12.60;;;3.20;99.90;;;0.51;100.00;99989.16;4926825;28;100015;-66
2021/01/02 00:24:38;;;;;;;14.07;11.97;;;3.10;99.90;;;0.64;100.00;99988.22;4926046;28;101121;-65
2021/01/02 00:27:10;;;;;;;14.20;10.83;;;3.10;99.90;;;0.66;100.00;99991.59;4907978;28;99944;-67
2021/01/02 00:30:07;;;;;;;15.33;12.60;;;4.10;99.90;;;0.47;100.00;100001.69;4906205;28;100422;-66
2021/01/02 00:33:00;;;;;;;17.47;12.93;;;3.10;99.90;;;0.59;100.00;100006.16;4906045;28;100285;-66
2021/01/02 00:35:28;;;;;;;15.83;12.37;;;3.20;99.90;;;0.56;100.00;100003.72;4897892;28;100049;-67
2021/01/02 00:38:02;;;;;;;15.30;12.27;;;4.30;99.90;;;0.66;100.00;100006.56;4906332;28;101306;-68
2021/01/02 00:40:30;;;;;;;15.97;11.90;;;3.20;99.90;;;0.67;100.00;100013.53;4906371;28;100058;-65
2021/01/02 00:42:58;;;;;;;16.63;12.67;;;3.20;99.90;;;0.62;100.00;100015.59;4906192;28;100191;-66
2021/01/02 00:45:27;;;;;;;16.30;12.70;;;4.90;99.90;;;0.54;100.00;100012.66;4899442;28;103310;-66
2021/01/02 00:47:54;;;;;;;14.53;12.47;;;3.20;99.90;;;0.53;100.00;100018.84;4926378;28;100608;-67
2021/01/02 00:50:27;;;;;;;16.37;12.63;;;3.30;99.90;;;0.58;100.00;100016.78;4907628;28;100393;-66
2021/01/02 00:53:48;;;;;;;15.83;12.90;;;3.50;99.90;;;0.53;100.00;100022.34;4899686;28;100403;-67
2021/01/02 00:56:30;;;;;;;14.63;11.30;;;3.30;99.90;;;0.57;100.00;100017.72;4903593;28;102803;-67
2021/01/02 00:59:59;;;;;;;17.43;12.67;;;3.30;99.90;;;0.52;100.00;100025.91;4904102;28;103144;-66
2021/01/02 01:03:01;;;;;;;19.23;13.30;;;4.10;99.90;;;0.38;100.00;100027.75;4888355;28;100048;-67
2021/01/02 01:05:32;;;;;;;14.53;11.70;;;3.30;99.90;;;0.26;100.00;100039.91;4906670;28;100110;-66
2021/01/02 01:07:59;;;;;;;17.73;12.57;;;3.30;99.90;;;0.21;100.00;100031.50;4906255;28;101336;-66
2021/01/02 01:10:27;;;;;;;14.77;11.80;;;3.20;99.90;;;0.32;100.00;100031.63;4905926;28;101097;-66
2021/01/02 01:13:06;;;;;;;16.93;12.90;;;4.00;99.90;;;0.26;100.00;100032.88;4905824;28;100307;-67
2021/01/02 01:15:35;;;;;;;13.97;11.27;;;3.30;99.90;;;0.20;100.00;100040.31;4906792;28;100095;-66
2021/01/02 01:18:32;;;;;;;15.63;12.47;;;3.10;99.90;;;0.31;100.00;100035.22;4905878;28;101194;-66
2021/01/02 01:21:00;;;;;;;15.23;12.23;;;3.10;99.90;;;0.32;100.00;100032.47;4914978;28;100592;-67
2021/01/02 01:23:54;;;;;;;14.03;10.20;;;3.10;99.90;;;0.27;100.00;100036.34;4925306;28;100013;-67
2021/01/02 01:27:01;;;;;;;16.53;13.20;;;3.10;99.90;;;0.34;100.00;100027.97;4925797;28;100031;-68
2021/01/02 01:29:40;;;;;;;16.07;12.37;;;3.00;99.90;;;0.20;100.00;100032.44;4925359;28;100549;-67
2021/01/02 01:32:09;;;;;;;16.30;12.73;;;3.00;99.90;;;0.13;100.00;100039.84;4905920;28;100659;-66
2021/01/02 01:34:37;;;;;;;16.67;13.33;;;3.40;99.90;;;-0.11;100.00;100034.38;4921377;28;99975;-67
2021/01/02 01:37:07;;;;;;;18.80;14.03;;;2.90;99.90;;;-0.14;100.00;100041.63;4925733;28;100104;-67
2021/01/02 01:39:36;;;;;;;18.63;13.90;;;2.60;99.90;;;-0.28;100.00;100049.53;4925261;28;101807;-67
2021/01/02 01:42:05;;;;;;;17.67;12.33;;;2.50;99.90;;;-0.40;100.00;100044.09;4925618;28;100330;-67
2021/01/02 01:44:55;;;;;;;15.53;13.07;;;2.50;99.90;;;-0.50;100.00;100053.50;4928528;28;100225;-67
2021/01/02 01:47:35;;;;;;;18.47;12.27;;;2.40;99.90;;;-0.54;100.00;100056.41;4928249;28;99962;-67
2021/01/02 01:50:28;;;;;;;18.00;13.87;;;2.20;99.90;;;-0.58;100.00;100057.50;4927478;28;101015;-67
2021/01/02 01:53:57;;;;;;;16.80;12.80;;;2.10;99.90;;;-0.60;100.00;100060.22;4927989;28;100845;-67
2021/01/02 01:56:31;;;;;;;21.87;14.07;;;2.40;99.90;;;-0.64;100.00;100064.00;4928948;28;100430;-66
2021/01/02 01:59:23;;;;;;;17.90;13.73;;;1.80;99.90;;;-0.60;100.00;100065.47;4927997;28;100017;-67
2021/01/02 02:01:55;;;;;;;19.07;13.10;;;1.80;99.90;;;-0.65;100.00;100058.84;4927886;28;100885;-68
2021/01/02 02:05:05;;;;;;;21.23;14.37;;;1.90;99.90;;;-0.80;100.00;100056.19;4928152;28;100510;-67
2021/01/02 02:07:46;;;;;;;21.57;15.67;;;1.80;99.90;;;-0.81;100.00;100065.00;4932103;28;100407;-67
2021/01/02 02:10:16;;;;;;;21.10;14.83;;;1.90;99.90;;;-0.79;100.00;100060.50;4939757;28;100448;-67
2021/01/02 02:12:52;;;;;;;21.67;15.57;;;1.70;99.90;;;-0.79;100.00;100059.66;4932325;28;100194;-67
2021/01/02 02:15:22;;;;;;;24.33;16.57;;;2.50;99.90;;;-0.88;100.00;100063.69;4928777;28;101183;-67
2021/01/02 02:17:54;;;;;;;25.93;17.63;;;1.70;99.90;;;-0.89;100.00;100058.53;4911520;28;100244;-67
2021/01/02 02:20:24;;;;;;;22.23;16.60;;;1.60;99.90;;;-0.84;100.00;100056.44;4913022;28;100087;-67
2021/01/02 02:23:03;;;;;;;23.57;16.13;;;1.60;99.90;;;-0.89;100.00;100062.00;4927897;28;101051;-67
2021/01/02 02:25:47;;;;;;;25.73;17.93;;;1.60;99.90;;;-0.88;100.00;100063.69;4925342;28;102773;-67
2021/01/02 02:28:54;;;;;;;28.87;19.30;;;1.60;99.90;;;-0.91;100.00;100063.03;4928005;28;100254;-67
2021/01/02 02:31:23;;;;;;;25.07;17.33;;;1.60;99.90;;;-0.92;100.00;100056.06;4928126;28;100212;-67
2021/01/02 02:33:56;;;;;;;24.90;17.53;;;1.60;99.90;;;-0.92;100.00;100062.19;4928227;28;101489;-67
2021/01/02 02:36:25;;;;;;;28.67;19.60;;;2.30;99.90;;;-0.87;100.00;100064.53;4927948;28;100311;-66
2021/01/02 02:38:52;;;;;;;29.70;19.17;;;1.70;99.90;;;-0.83;100.00;100066.03;4927970;28;100319;-67
2021/01/02 02:41:23;;;;;;;27.27;18.80;;;1.80;99.90;;;-0.75;100.00;100069.91;4927794;28;100448;-66
2021/01/02 02:43:54;;;;;;;32.23;20.40;;;1.70;99.90;;;-0.71;100.00;100070.53;4926289;28;100421;-67
2021/01/02 02:46:22;;;;;;;30.47;19.17;;;1.90;99.90;;;-0.72;100.00;100067.06;4908157;28;101337;-67
2021/01/02 02:48:53;;;;;;;25.33;18.07;;;1.70;99.90;;;-0.67;100.00;100069.44;4908588;28;100063;-66
2021/01/02 02:51:20;;;;;;;30.83;20.30;;;1.80;99.90;;;-0.65;100.00;100070.19;4908366;28;100149;-67
2021/01/02 02:53:51;;;;;;;28.33;20.13;;;1.90;99.90;;;-0.62;100.00;100080.53;4907455;28;101862;-66
2021/01/02 02:56:18;;;;;;;29.63;19.93;;;1.90;99.90;;;-0.63;100.00;100072.72;4916750;28;100449;-68
2021/01/02 02:58:44;;;;;;;29.73;19.60;;;1.80;99.90;;;-0.66;100.00;100075.53;4928005;28;100081;-67
2021/01/02 03:01:11;;;;;;;24.80;17.37;;;2.30;99.90;;;-0.59;100.00;100074.22;4928380;28;100294;-67
2021/01/02 03:03:37;;;;;;;30.30;20.40;;;3.10;99.90;;;-0.60;100.00;100073.38;4927728;28;100847;-67
2021/01/02 03:06:05;;;;;;;31.33;20.03;;;1.90;99.90;;;-0.64;100.00;100071.03;4925185;28;102376;-67
2021/01/02 03:08:32;;;;;;;28.30;20.20;;;2.00;99.90;;;-0.61;100.00;100070.81;4927058;28;100310;-67
2021/01/02 03:11:03;;;;;;;31.57;20.90;;;2.10;99.90;;;-0.64;100.00;100068.41;4913532;28;100222;-67
2021/01/02 03:13:40;;;;;;;28.23;19.90;;;2.20;99.90;;;-0.63;100.00;100062.22;4907612;28;101340;-67
2021/01/02 03:16:07;;;;;;;30.27;18.83;;;2.00;99.90;;;-0.49;100.00;100068.28;4908523;28;100418;-67
2021/01/02 03:18:34;;;;;;;29.37;19.17;;;3.10;99.90;;;-0.50;100.00;100063.16;4908198;28;100297;-68
2021/01/02 03:21:01;;;;;;;32.63;21.13;;;2.10;99.90;;;-0.56;100.00;100072.25;4918160;28;100182;-67
2021/01/02 03:23:27;;;;;;;24.30;17.20;;;3.30;99.90;;;-0.50;100.00;100068.41;4926917;28;101556;-67
2021/01/02 03:26:04;;;;;;;27.97;20.13;;;1.90;99.90;;;-0.45;100.00;100075.06;4927203;28;100571;-67
2021/01/02 03:28:30;;;;;;;28.17;18.87;;;2.10;99.90;;;-0.43;100.00;100073.19;4927064;28;100261;-66
2021/01/02 03:30:57;;;;;;;30.07;19.53;;;2.10;99.90;;;-0.54;100.00;100085.31;4926639;28;100212;-68
2021/01/02 03:33:25;;;;;;;27.70;17.83;;;2.20;99.90;;;-0.48;100.00;100079.66;4926170;28;101374;-67
2021/01/02 03:35:57;;;;;;;33.23;20.37;;;1.30;99.90;;;-0.52;100.00;100080.81;4926454;28;100712;-67
2021/01/02 03:38:25;;;;;;;28.47;19.60;;;2.20;99.90;;;-0.46;100.00;100078.63;4927517;28;100314;-67
2021/01/02 03:40:52;;;;;;;33.07;19.67;;;2.10;99.90;;;-0.55;100.00;100083.59;4927218;28;100284;-67
2021/01/02 03:43:20;;;;;;;38.50;22.17;;;2.10;99.90;;;-0.59;100.00;100088.19;4926295;28;100777;-67
2021/01/02 03:45:47;;;;;;;27.90;18.50;;;2.10;99.90;;;-0.71;100.00;100086.31;4925686;28;100591;-66
2021/01/02 03:48:13;;;;;;;29.73;19.63;;;2.00;99.90;;;-0.59;100.00;100090.81;4926394;28;100103;-68
2021/01/02 03:50:41;;;;;;;24.70;17.73;;;2.70;99.90;;;-0.59;100.00;100084.72;4927625;28;100686;-66
2021/01/02 03:53:07;;;;;;;33.10;21.40;;;1.90;99.90;;;-0.69;100.00;100081.81;4926862;28;100772;-66
2021/01/02 03:55:34;;;;;;;28.87;20.47;;;1.80;99.90;;;-0.74;100.00;100078.59;4924925;28;100499;-67
2021/01/02 03:58:01;;;;;;;30.30;21.33;;;2.00;99.90;;;-0.82;100.00;100080.84;4926423;28;100244;-67
2021/01/02 04:00:28;;;;;;;31.33;20.50;;;1.90;99.90;;;-0.88;100.00;100075.97;4926629;28;100266;-67
2021/01/02 04:02:55;;;;;;;33.20;21.37;;;1.80;99.90;;;-0.93;100.00;100081.50;4925589;28;100730;-67
2021/01/02 04:05:22;;;;;;;31.93;20.73;;;1.60;99.90;;;-0.92;100.00;100083.19;4925920;28;100348;-68
2021/01/02 04:07:48;;;;;;;33.43;21.23;;;1.70;99.90;;;-0.93;100.00;100085.91;4911850;28;100147;-65
2021/01/02 04:10:15;;;;;;;35.23;22.87;;;1.70;99.90;;;-1.01;100.00;100088.13;4907549;28;100024;-67
2021/01/02 04:12:41;;;;;;;30.93;20.60;;;1.50;99.90;;;-1.04;100.00;100083.06;4907234;28;100580;-67
2021/01/02 04:15:09;;;;;;;36.03;22.57;;;1.70;99.90;;;-1.08;100.00;100088.47;4906933;28;101211;-68
2021/01/02 04:17:36;;;;;;;31.57;21.60;;;1.40;99.90;;;-0.97;100.00;100090.47;4923344;28;100506;-67
2021/01/02 04:20:05;;;;;;;34.10;22.70;;;1.10;99.90;;;-0.99;100.00;100092.34;4926533;28;100254;-67
2021/01/02 04:22:32;;;;;;;37.40;22.87;;;1.50;99.90;;;-0.90;100.00;100096.22;4925482;28;101772;-67
2021/01/02 04:25:00;;;;;;;35.63;22.57;;;1.60;99.90;;;-0.90;100.00;100094.44;4925349;28;101246;-68
2021/01/02 04:27:27;;;;;;;41.97;24.47;;;1.60;99.90;;;-0.87;100.00;100090.81;4926927;28;100255;-67
2021/01/02 04:29:53;;;;;;;37.83;22.87;;;1.60;99.90;;;-0.90;100.00;100088.34;4926655;28;100206;-67
2021/01/02 04:32:20;;;;;;;35.83;23.30;;;1.80;99.90;;;-0.88;100.00;100089.97;4926410;28;101017;-67
2021/01/02 04:34:48;;;;;;;37.37;23.97;;;1.40;99.90;;;-0.82;100.00;100100.09;4926342;28;100595;-67
2021/01/02 04:37:15;;;;;;;39.47;23.63;;;1.70;99.90;;;-0.62;100.00;100098.06;4926434;28;100260;-68
2021/01/02 04:39:42;;;;;;;37.20;24.20;;;1.60;99.90;;;-0.58;100.00;100097.78;4926450;28;100383;-67
2021/01/02 04:42:09;;;;;;;37.20;25.10;;;1.70;99.90;;;-0.55;100.00;100096.75;4925997;28;101214;-68
2021/01/02 04:44:39;;;;;;;39.97;25.60;;;1.80;99.90;;;-0.55;100.00;100097.59;4918288;28;100498;-67
2021/01/02 04:47:07;;;;;;;36.50;24.60;;;1.80;99.90;;;-0.52;100.00;100099.19;4905991;28;100307;-67
2021/01/02 04:49:34;;;;;;;37.67;24.87;;;1.90;99.90;;;-0.50;100.00;100105.22;4907012;28;100266;-67
2021/01/02 04:52:02;;;;;;;36.97;24.83;;;3.10;99.90;;;-0.41;100.00;100107.28;4906006;28;101238;-67
2021/01/02 04:54:30;;;;;;;43.83;25.60;;;2.00;99.90;;;-0.38;100.00;100107.94;4906386;28;100874;-67
2021/01/02 04:57:00;;;;;;;42.73;25.90;;;2.10;99.90;;;-0.38;100.00;100109.72;4923817;28;100992;-67
2021/01/02 04:59:27;;;;;;;39.33;25.83;;;2.50;99.90;;;-0.36;100.00;100113.09;4925405;28;100115;-67
2021/01/02 05:01:54;;;;;;;41.40;26.13;;;2.20;99.90;;;-0.34;100.00;100111.22;4925755;28;101920;-67
2021/01/02 05:04:22;;;;;;;41.80;26.97;;;2.10;99.90;;;-0.28;100.00;100115.25;4926051;28;100274;-67
2021/01/02 05:06:49;;;;;;;41.50;26.17;;;3.10;99.90;;;-0.40;100.00;100112.44;4925380;28;100366;-67
2021/01/02 05:09:16;;;;;;;41.87;26.10;;;2.10;99.90;;;-0.37;100.00;100121.91;4926382;28;100127;-67
2021/01/02 05:11:43;;;;;;;39.53;24.80;;;1.90;99.90;;;-0.42;100.00;100118.72;4923598;28;100897;-67
2021/01/02 05:14:09;;;;;;;40.60;25.50;;;2.10;99.90;;;-0.44;100.00;100116.19;4925604;28;101145;-67
2021/01/02 05:16:37;;;;;;;38.17;24.60;;;1.90;99.90;;;-0.41;100.00;100115.16;4925540;28;100469;-67
2021/01/02 05:19:07;;;;;;;39.37;25.63;;;2.00;99.90;;;-0.46;100.00;100117.22;4924561;28;100086;-67
2021/01/02 05:21:36;;;;;;;39.43;26.00;;;3.20;99.90;;;-0.60;100.00;100119.81;4925028;28;100351;-66
2021/01/02 05:24:08;;;;;;;43.77;27.77;;;1.90;99.90;;;-0.66;100.00;100115.78;4925351;28;101461;-67
2021/01/02 05:26:37;;;;;;;42.00;27.83;;;1.80;99.90;;;-0.69;100.00;100123.00;4925771;28;100079;-66
2021/01/02 05:29:20;;;;;;;41.53;26.97;;;1.70;99.90;;;-0.74;100.00;100126.75;4926231;28;100294;-67
2021/01/02 05:31:50;;;;;;;41.87;27.00;;;1.60;99.90;;;-0.83;100.00;100123.81;4922859;28;101533;-66
2021/01/02 05:34:19;;;;;;;42.30;27.17;;;1.60;99.90;;;-0.83;100.00;100118.56;4925490;28;100696;-66
2021/01/02 05:36:46;;;;;;;44.80;29.23;;;1.60;99.90;;;-0.87;100.00;100127.59;4924734;28;101983;-66
2021/01/02 05:39:18;;;;;;;45.10;28.47;;;1.40;99.90;;;-0.91;100.00;100131.31;4925832;28;100073;-68
2021/01/02 05:41:54;;;;;;;43.93;27.37;;;1.40;99.90;;;-1.00;100.00;100139.72;4925104;28;100899;-66
2021/01/02 05:44:23;;;;;;;46.40;28.87;;;1.30;99.90;;;-1.04;100.00;100132.97;4925796;28;100509;-66
2021/01/02 05:46:55;;;;;;;41.60;26.23;;;1.30;99.90;;;-0.91;100.00;100133.94;4923573;28;100153;-66
2021/01/02 05:49:30;;;;;;;46.07;27.77;;;1.20;99.90;;;-1.12;100.00;100130.78;4925675;28;100283;-66
2021/01/02 05:51:58;;;;;;;43.20;27.43;;;1.20;99.90;;;-1.11;100.00;100132.44;4925398;28;101055;-67
2021/01/02 05:54:26;;;;;;;43.80;28.00;;;1.30;99.90;;;-1.04;100.00;100131.19;4925222;28;101330;-66
2021/01/02 05:56:57;;;;;;;46.00;28.17;;;0.60;99.90;;;-1.04;100.00;100132.97;4925353;28;100166;-68
2021/01/02 05:59:33;;;;;;;45.83;28.23;;;1.40;99.90;;;-1.07;100.00;100131.34;4925108;28;100340;-67
2021/01/02 06:02:24;;;;;;;42.87;26.80;;;1.20;99.90;;;-1.01;100.00;100140.66;4924192;28;101137;-67
2021/01/02 06:04:55;;;;;;;44.77;27.60;;;1.10;99.90;;;-1.10;100.00;100144.66;4924113;28;100141;-67
2021/01/02 06:07:22;;;;;;;42.63;26.57;;;1.20;99.90;;;-0.94;100.00;100142.84;4924937;28;100255;-67
2021/01/02 06:09:51;;;;;;;43.57;26.40;;;1.30;99.90;;;-1.12;100.00;100146.53;4925166;28;100260;-68
2021/01/02 06:12:26;;;;;;;41.47;25.87;;;1.30;99.90;;;-1.12;100.00;100152.63;4924382;28;100168;-66
2021/01/02 06:14:54;;;;;;;41.70;26.03;;;2.60;99.90;;;-1.10;100.00;100157.78;4918254;28;101421;-66
2021/01/02 06:17:30;;;;;;;38.20;24.40;;;1.10;99.90;;;-1.20;100.00;100154.84;4914382;28;101849;-66
2021/01/02 06:19:58;;;;;;;45.17;26.93;;;1.10;99.90;;;-1.18;100.00;100158.22;4925251;28;100695;-67
2021/01/02 06:22:26;;;;;;;43.00;26.97;;;1.20;99.90;;;-1.39;100.00;100159.44;4922725;28;100982;-68
2021/01/02 06:24:53;;;;;;;37.70;25.60;;;1.20;99.90;;;-1.40;100.00;100163.00;4925187;28;100761;-68
2021/01/02 06:27:20;;;;;;;41.40;26.13;;;1.20;99.90;;;-1.37;100.00;100169.84;4929924;28;100166;-68
2021/01/02 06:29:52;;;;;;;44.97;27.43;;;1.20;99.90;;;-1.40;100.00;100172.66;4935094;28;100442;-68
2021/01/02 06:32:20;;;;;;;41.47;24.97;;;1.10;99.90;;;-1.54;100.00;100169.00;4929125;28;100042;-68
2021/01/02 06:35:19;;;;;;;38.30;25.50;;;1.90;99.90;;;-1.36;100.00;100172.38;4927951;28;100619;-67
2021/01/02 06:38:11;;;;;;;35.20;24.23;;;1.10;99.90;;;-1.51;100.00;100183.75;4928656;28;100144;-68
2021/01/02 06:40:41;;;;;;;36.93;25.63;;;1.20;99.90;;;-1.55;100.00;100187.44;4908751;28;100541;-68
2021/01/02 06:43:11;;;;;;;48.20;30.57;;;1.10;99.90;;;-1.47;100.00;100190.50;4918628;28;101705;-69
2021/01/02 06:45:59;;;;;;;52.70;32.83;;;1.10;99.90;;;-1.47;100.00;100190.50;4909707;28;100879;-68
2021/01/02 06:48:43;;;;;;;52.40;32.30;;;1.00;99.90;;;-1.53;100.00;100183.81;4915594;28;100416;-68
2021/01/02 06:51:33;;;;;;;55.53;34.10;;;1.10;99.90;;;-1.44;100.00;100187.69;4928096;28;100476;-68
2021/01/02 06:54:01;;;;;;;52.53;33.20;;;1.10;99.90;;;-1.45;100.00;100183.38;4907057;28;101528;-68
2021/01/02 06:56:36;;;;;;;53.20;32.80;;;1.00;99.90;;;-1.64;100.00;100186.19;4927314;28;101415;-67
2021/01/02 06:59:04;;;;;;;50.37;32.57;;;1.10;99.90;;;-1.74;100.00;100192.88;4928709;28;100310;-66
2021/01/02 07:01:44;;;;;;;51.47;33.10;;;0.80;99.90;;;-1.77;100.00;100193.03;4927770;28;100199;-68
2021/01/02 07:04:12;;;;;;;57.20;35.00;;;1.10;99.90;;;-1.70;100.00;100191.75;4911501;28;101630;-68
2021/01/02 07:06:43;;;;;;;63.33;36.60;;;1.10;99.90;;;-1.79;100.00;100191.41;4903773;28;101365;-68
2021/01/02 07:09:25;;;;;;;55.60;35.17;;;0.90;99.90;;;-1.83;100.00;100186.31;4905799;28;100172;-69
2021/01/02 07:12:14;;;;;;;50.77;30.17;;;1.00;99.90;;;-1.88;100.00;100188.38;4906450;28;100461;-67
2021/01/02 07:14:43;;;;;;;47.90;29.53;;;1.00;99.90;;;-1.88;100.00;100185.75;4905081;28;101210;-67
2021/01/02 07:17:11;;;;;;;48.87;28.30;;;1.00;99.90;;;-1.89;100.00;100185.81;4905582;28;100625;-67
2021/01/02 07:19:44;;;;;;;44.37;28.40;;;0.80;99.90;;;-1.95;100.00;100186.97;4905084;28;100252;-67
2021/01/02 07:22:26;;;;;;;41.07;26.87;;;0.90;99.90;;;-1.91;100.00;100193.75;4905956;28;100540;-67
2021/01/02 07:25:06;;;;;;;42.83;26.50;;;0.80;99.90;;;-1.89;100.00;100194.53;4904592;28;100805;-68
2021/01/02 07:27:37;;;;;;;48.40;28.50;;;0.70;99.90;;;-1.78;100.00;100193.94;4904968;28;100152;-67
2021/01/02 07:30:08;;;;;;;44.90;28.40;;;0.70;99.90;;;-1.92;100.00;100191.22;4909922;28;100240;-67
2021/01/02 07:32:37;;;;;;;41.87;27.07;;;0.80;99.90;;;-1.99;100.00;100195.09;4940562;28;100051;-68
2021/01/02 07:35:07;;;;;;;39.70;26.87;;;1.30;99.90;;;-1.96;100.00;100198.38;4943626;28;100127;-67
2021/01/02 07:37:36;;;;;;;46.10;26.57;;;0.70;99.90;;;-1.81;100.00;100199.34;4945045;28;100330;-68
2021/01/02 07:40:06;;;;;;;51.93;32.00;;;1.40;99.90;;;-1.72;100.00;100209.34;4944532;28;100295;-69
2021/01/02 07:42:34;;;;;;;49.63;31.13;;;0.60;99.90;;;-1.61;100.00;100207.03;4944210;28;100145;-67
2021/01/02 07:45:08;;;;;;;50.23;32.20;;;0.80;99.90;;;-1.73;100.00;100212.06;4944040;28;100966;-67
2021/01/02 07:47:35;;;;;;;55.60;35.43;;;0.90;99.90;;;-1.82;100.00;100205.53;4909627;28;100875;-68
2021/01/02 07:50:10;;;;;;;65.13;39.33;;;1.00;99.90;;;-1.84;100.00;100216.09;4905053;28;100145;-68
2021/01/02 07:52:47;;;;;;;55.13;33.00;;;1.00;99.90;;;-1.88;100.00;100213.75;4905050;28;100315;-67
2021/01/02 07:55:15;;;;;;;49.30;30.77;;;0.90;99.90;;;-1.83;100.00;100215.16;4904749;28;100811;-67
2021/01/02 07:57:42;;;;;;;53.17;32.00;;;1.00;99.90;;;-1.74;100.00;100223.50;4909310;28;101308;-68
2021/01/02 08:00:11;;;;;;;47.83;29.37;;;0.80;99.90;;;-1.87;100.00;100225.94;4924667;28;100201;-67
2021/01/02 08:02:40;;;;;;;42.53;26.03;;;1.00;99.90;;;-1.56;100.00;100225.13;4925019;28;100420;-67
2021/01/02 08:05:10;;;;;;;52.60;31.97;;;1.10;99.90;;;-1.57;100.00;100224.25;4923773;28;100699;-67
2021/01/02 08:07:38;;;;;;;45.00;29.33;;;1.00;99.90;;;-1.40;100.00;100227.75;4923840;28;101123;-67
2021/01/02 08:10:08;;;;;;;51.73;31.87;;;1.10;99.90;;;-1.35;100.00;100225.72;4924067;28;100077;-68
2021/01/02 08:12:36;;;;;;;50.90;32.73;;;1.10;99.90;;;-1.42;100.00;100227.84;4922781;28;100354;-69
2021/01/02 08:15:05;;;;;;;48.03;29.33;;;1.60;99.90;;;-1.37;100.00;100232.84;4923285;28;100208;-66
2021/01/02 08:17:40;;;;;;;46.87;29.50;;;1.10;99.90;;;-1.36;100.00;100239.78;4923790;28;101832;-68
2021/01/02 08:20:09;;;;;;;44.87;28.00;;;1.30;99.90;;;-1.38;100.00;100241.66;4924183;28;100178;-67
2021/01/02 08:22:37;;;;;;;46.13;29.33;;;1.30;99.90;;;-1.41;100.00;100240.03;4924065;28;100192;-68
2021/01/02 08:25:06;;;;;;;41.07;26.60;;;1.40;99.90;;;-1.28;100.00;100243.69;4921625;28;101522;-67
2021/01/02 08:27:34;;;;;;;42.33;28.53;;;1.40;99.90;;;-1.28;100.00;100234.97;4904236;28;100789;-68
2021/01/02 08:30:03;;;;;;;43.30;26.33;;;1.50;99.90;;;-1.40;100.00;100236.47;4905056;28;100210;-68
2021/01/02 08:32:33;;;;;;;48.33;28.03;;;1.60;99.90;;;-1.40;100.00;100239.09;4905204;28;100119;-67
2021/01/02 08:35:00;;;;;;;47.33;28.27;;;0.50;99.90;;;-1.27;100.00;100247.16;4903111;28;101575;-67
2021/01/02 08:37:27;;;;;;;46.40;28.57;;;1.60;99.90;;;-1.17;100.00;100249.19;4904194;28;100473;-67
2021/01/02 08:40:08;;;;;;;53.90;33.87;;;1.60;99.90;;;-1.22;100.00;100245.09;4910495;28;100029;-67
2021/01/02 08:42:36;;;;;;;47.60;29.53;;;1.60;99.90;;;-1.27;100.00;100255.03;4924017;28;100050;-67
2021/01/02 08:45:06;;;;;;;46.60;28.83;;;1.60;99.90;;;-1.08;100.00;100248.66;4923195;28;100743;-66
2021/01/02 08:47:33;;;;;;;47.13;28.53;;;1.70;99.90;;;-0.97;100.00;100257.72;4923817;28;100714;-67
2021/01/02 08:50:12;;;;;;;47.50;28.47;;;1.70;99.90;;;-1.08;100.00;100256.53;4922984;28;100210;-67
2021/01/02 08:52:40;;;;;;;46.00;28.43;;;1.60;99.90;;;-1.22;100.00;100261.69;4924393;28;100614;-67
2021/01/02 08:55:13;;;;;;;43.10;28.83;;;2.00;99.90;;;-1.19;100.00;100263.31;4922971;28;101408;-66
2021/01/02 08:57:46;;;;;;;44.30;30.17;;;1.80;99.90;;;-1.07;100.00;100267.88;4903931;28;100388;-68
2021/01/02 09:00:19;;;;;;;106.47;75.87;;;1.70;99.90;;;-0.79;100.00;100259.31;4902553;28;100664;-67
2021/01/02 09:02:48;;;;;;;50.10;31.67;;;0.60;99.90;;;-0.69;100.00;100262.25;4903822;28;100003;-67
2021/01/02 09:05:18;;;;;;;52.63;33.93;;;2.00;99.90;;;-0.79;100.00;100262.78;4904359;28;101030;-67
2021/01/02 09:07:57;;;;;;;47.30;30.03;;;1.90;99.90;;;-0.76;100.00;100264.41;4904015;28;100558;-67
2021/01/02 09:10:37;;;;;;;50.87;32.07;;;2.20;99.90;;;-0.66;100.00;100269.97;4904368;28;100147;-66
2021/01/02 09:13:15;;;;;;;47.83;30.60;;;2.20;99.90;;;-0.56;100.00;100276.41;4904471;28;100261;-66
2021/01/02 09:15:54;;;;;;;49.37;31.83;;;2.40;99.90;;;-0.48;100.00;100275.00;4902753;28;100849;-67
2021/01/02 09:18:41;;;;;;;48.90;31.40;;;2.50;99.90;;;-0.13;100.00;100277.38;4903425;28;100339;-65
2021/01/02 09:21:26;;;;;;;48.87;32.40;;;2.50;99.90;;;0.16;100.00;100273.00;4903964;28;100169;-66
2021/01/02 09:23:53;;;;;;;50.27;31.47;;;2.90;99.90;;;0.11;100.00;100272.44;4903902;28;100415;-67
2021/01/02 09:26:33;;;;;;;48.97;30.77;;;3.00;99.90;;;0.31;100.00;100274.69;4902441;28;100781;-66
2021/01/02 09:29:03;;;;;;;42.60;28.03;;;3.30;99.90;;;0.35;100.00;100276.22;4903752;28;100452;-67
2021/01/02 09:31:35;;;;;;;41.80;27.70;;;3.40;99.90;;;0.49;100.00;100270.97;4903833;28;100017;-66
2021/01/02 09:34:01;;;;;;;42.83;27.60;;;3.70;99.90;;;0.53;100.00;100275.06;4904231;28;100077;-67
2021/01/02 09:36:29;;;;;;;44.00;28.43;;;3.90;99.90;;;0.58;100.00;100270.38;4903019;28;102071;-67
2021/01/02 09:38:55;;;;;;;43.60;28.30;;;4.00;99.90;;;0.68;100.00;100282.03;4902952;28;101320;-67
2021/01/02 09:41:26;;;;;;;42.27;29.43;;;4.00;99.90;;;0.68;100.00;100276.75;4902823;28;100294;-67
2021/01/02 09:43:54;;;;;;;44.73;29.67;;;4.30;99.90;;;0.87;100.00;100281.69;4917080;28;100347;-66
2021/01/02 09:46:22;;;;;;;43.47;27.83;;;4.20;99.90;;;0.74;100.00;100286.06;4922274;28;100742;-66
2021/01/02 09:48:51;;;;;;;43.10;28.13;;;4.20;99.90;;;0.84;100.00;100281.91;4922640;28;100384;-66
2021/01/02 09:51:18;;;;;;;42.40;28.00;;;4.30;99.90;;;0.83;100.00;100282.00;4911205;28;100281;-66
2021/01/02 09:53:45;;;;;;;43.57;28.43;;;3.40;99.90;;;0.91;100.00;100274.47;4903871;28;100252;-67
2021/01/02 09:56:12;;;;;;;44.17;29.20;;;4.30;99.90;;;0.90;100.00;100278.03;4903049;28;100634;-66
2021/01/02 09:58:42;;;;;;;40.10;27.57;;;4.20;99.90;;;0.95;100.00;100275.97;4903347;28;100662;-66
2021/01/02 10:01:08;;;;;;;41.33;28.20;;;4.20;99.90;;;1.12;100.00;100277.50;4903964;28;100066;-66
2021/01/02 10:03:35;;;;;;;43.17;26.90;;;4.10;99.90;;;1.06;100.00;100276.97;4902831;28;99962;-66
2021/01/02 10:06:03;;;;;;;44.20;27.40;;;4.30;99.90;;;1.20;100.00;100281.34;4912114;28;101287;-66
2021/01/02 10:08:30;;;;;;;40.83;25.53;;;4.30;99.90;;;1.40;100.00;100273.00;4926624;28;101530;-66
2021/01/02 10:10:56;;;;;;;39.93;26.50;;;4.40;99.90;;;1.35;100.00;100275.09;4925619;28;100152;-67
2021/01/02 10:13:23;;;;;;;38.60;25.30;;;4.20;99.90;;;1.61;100.00;100276.00;4926305;28;100501;-66
2021/01/02 10:15:50;;;;;;;43.20;27.07;;;4.30;99.90;;;1.48;100.00;100267.22;4925285;28;101111;-67
2021/01/02 10:18:17;;;;;;;43.10;25.90;;;4.50;99.90;;;1.71;100.00;100268.34;4925542;28;100757;-66
2021/01/02 10:20:43;;;;;;;41.77;26.77;;;4.50;99.90;;;1.89;100.00;100263.59;4925751;28;100547;-66